createdAt,value
2022-08-24T00:02:01.868Z,44.25
2022-08-24T00:04:28.599Z,44.33
2022-08-24T00:06:58.774Z,44.65
2022-08-24T00:09:25.385Z,44.64
2022-08-24T00:11:51.919Z,44.21
2022-08-24T00:14:18.763Z,44.74
2022-08-24T00:16:45.780Z,44.80
2022-08-24T00:19:12.616Z,44.93
2022-08-24T00:21:39.040Z,45.07
2022-08-24T00:24:06.707Z,45.01
2022-08-24T00:26:33.187Z,44.92
2022-08-24T00:29:01.384Z,45.15
2022-08-24T00:31:31.026Z,45.13
2022-08-24T00:33:57.879Z,45.24
2022-08-24T00:36:24.761Z,44.96
2022-08-24T00:38:51.553Z,45.24
2022-08-24T00:41:18.292Z,45.30
2022-08-24T00:43:58.964Z,45.64
2022-08-24T00:46:47.959Z,45.46
2022-08-24T00:49:35.796Z,45.62
2022-08-24T00:52:14.311Z,45.67
2022-08-24T00:54:46.619Z,45.76
2022-08-24T00:57:17.115Z,46.09
2022-08-24T00:59:49.188Z,46.38
2022-08-24T01:02:21.736Z,46.31
2022-08-24T01:04:54.519Z,46.67
2022-08-24T01:07:23.313Z,46.72
2022-08-24T01:09:52.465Z,46.62
2022-08-24T01:12:19.269Z,46.60
2022-08-24T01:14:46.072Z,46.96
2022-08-24T01:17:35.026Z,46.96
2022-08-24T01:20:07.429Z,47.14
2022-08-24T01:23:00.595Z,47.21
2022-08-24T01:25:28.869Z,47.69
2022-08-24T01:27:59.177Z,47.52
2022-08-24T01:30:30.534Z,47.86
2022-08-24T01:33:05.986Z,47.68
2022-08-24T01:35:33.613Z,47.87
2022-08-24T01:38:05.132Z,47.75
2022-08-24T01:40:37.353Z,48.18
2022-08-24T01:43:06.258Z,48.27
2022-08-24T01:45:33.458Z,48.08
2022-08-24T01:48:00.990Z,48.40
2022-08-24T01:50:29.332Z,48.24
2022-08-24T01:53:05.400Z,48.50
2022-08-24T01:55:33.589Z,48.75
2022-08-24T01:58:00.609Z,48.57
2022-08-24T02:00:29.282Z,48.69
2022-08-24T02:02:57.149Z,48.71
2022-08-24T02:05:25.136Z,49.18
2022-08-24T02:07:52.511Z,49.00
2022-08-24T02:10:21.923Z,49.42
2022-08-24T02:12:57.695Z,49.32
2022-08-24T02:15:39.933Z,49.59
2022-08-24T02:18:15.067Z,49.30
2022-08-24T02:20:43.279Z,49.71
2022-08-24T02:23:09.916Z,49.76
2022-08-24T02:25:36.648Z,50.42
2022-08-24T02:28:03.992Z,50.30
2022-08-24T02:30:32.090Z,50.35
2022-08-24T02:32:59.062Z,50.20
2022-08-24T02:35:26.997Z,50.58
2022-08-24T02:37:53.475Z,50.53
2022-08-24T02:40:20.816Z,50.74
2022-08-24T02:42:48.505Z,50.92
2022-08-24T02:45:15.749Z,50.88
2022-08-24T02:47:42.771Z,51.14
2022-08-24T02:50:12.801Z,51.11
2022-08-24T02:52:39.741Z,51.08
2022-08-24T02:55:09.055Z,51.30
2022-08-24T02:57:38.748Z,51.37
2022-08-24T03:00:10.647Z,51.27
2022-08-24T03:02:39.567Z,51.47
2022-08-24T03:05:07.356Z,51.52
2022-08-24T03:07:35.238Z,51.65
2022-08-24T03:10:02.267Z,51.57
2022-08-24T03:12:29.101Z,51.82
2022-08-24T03:14:55.508Z,51.87
2022-08-24T03:17:23.921Z,52.09
2022-08-24T03:19:50.593Z,52.29
2022-08-24T03:22:17.268Z,52.40
2022-08-24T03:24:45.684Z,52.09
2022-08-24T03:27:14.033Z,52.61
2022-08-24T03:29:41.042Z,52.48
2022-08-24T03:32:08.102Z,52.74
2022-08-24T03:34:34.786Z,52.95
2022-08-24T03:37:01.480Z,52.92
2022-08-24T03:39:28.479Z,52.93
2022-08-24T03:41:56.348Z,52.97
2022-08-24T03:44:27.676Z,52.88
2022-08-24T03:46:55.016Z,53.25
2022-08-24T03:49:23.816Z,53.32
2022-08-24T03:51:50.583Z,53.50
2022-08-24T03:54:20.603Z,53.49
2022-08-24T03:56:47.196Z,53.82
2022-08-24T03:59:18.932Z,53.83
2022-08-24T04:01:48.110Z,53.56
2022-08-24T04:04:15.029Z,53.83
2022-08-24T04:06:44.582Z,53.72
2022-08-24T04:09:12.187Z,54.04
2022-08-24T04:11:41.753Z,53.88
2022-08-24T04:14:26.769Z,54.16
2022-08-24T04:17:12.688Z,54.25
2022-08-24T04:19:57.444Z,54.23
2022-08-24T04:22:31.737Z,54.43
2022-08-24T04:24:58.408Z,54.44
2022-08-24T04:27:25.961Z,54.79
2022-08-24T04:29:53.006Z,54.95
2022-08-24T04:32:19.660Z,55.11
2022-08-24T04:34:47.129Z,54.85
2022-08-24T04:37:14.248Z,55.04
2022-08-24T04:39:42.158Z,55.20
2022-08-24T04:42:20.935Z,55.11
2022-08-24T04:44:47.479Z,55.39
2022-08-24T04:47:14.187Z,55.57
2022-08-24T04:49:41.933Z,55.23
2022-08-24T04:52:09.859Z,55.65
2022-08-24T04:54:36.507Z,55.94
2022-08-24T04:57:15.865Z,55.91
2022-08-24T04:59:46.025Z,55.75
2022-08-24T05:02:12.736Z,56.08
2022-08-24T05:04:39.540Z,56.35
2022-08-24T05:07:07.276Z,56.54
2022-08-24T05:09:34.141Z,56.34
2022-08-24T05:12:02.525Z,56.93
2022-08-24T05:14:33.634Z,56.61
2022-08-24T05:17:00.262Z,57.03
2022-08-24T05:19:30.693Z,57.18
2022-08-24T05:21:57.179Z,57.17
2022-08-24T05:24:23.833Z,57.38
2022-08-24T05:26:52.292Z,57.97
2022-08-24T05:29:19.631Z,58.31
2022-08-24T05:31:49.125Z,58.08
2022-08-24T05:34:16.518Z,58.42
2022-08-24T05:36:43.851Z,58.54
2022-08-24T05:39:26.893Z,58.55
2022-08-24T05:41:55.468Z,58.86
2022-08-24T05:44:30.663Z,58.69
2022-08-24T05:47:01.112Z,58.99
2022-08-24T05:49:28.184Z,58.38
2022-08-24T05:51:55.151Z,59.13
2022-08-24T05:54:23.101Z,59.96
2022-08-24T05:57:04.370Z,59.65
2022-08-24T05:59:35.347Z,60.08
2022-08-24T06:02:08.408Z,60.46
2022-08-24T06:04:38.010Z,60.67
2022-08-24T06:07:06.018Z,61.62
2022-08-24T06:09:33.858Z,61.10
2022-08-24T06:12:00.501Z,61.85
2022-08-24T06:14:27.271Z,61.21
2022-08-24T06:16:57.410Z,61.45
2022-08-24T06:19:26.866Z,61.57
2022-08-24T06:21:54.859Z,62.06
2022-08-24T06:24:41.946Z,62.26
2022-08-24T06:27:24.046Z,62.59
2022-08-24T06:30:03.575Z,62.09
2022-08-24T06:32:48.286Z,62.26
2022-08-24T06:35:42.440Z,62.53
2022-08-24T06:38:11.219Z,62.93
2022-08-24T06:40:38.787Z,62.73
2022-08-24T06:43:05.511Z,62.69
2022-08-24T06:45:44.984Z,62.81
2022-08-24T06:48:12.865Z,62.15
2022-08-24T06:50:40.056Z,62.95
2022-08-24T06:53:06.511Z,62.92
2022-08-24T06:55:33.563Z,62.79
2022-08-24T06:58:00.772Z,62.63
2022-08-24T07:00:30.625Z,62.85
2022-08-24T07:02:57.277Z,62.71
2022-08-24T07:05:24.020Z,62.82
2022-08-24T07:08:09.558Z,62.09
2022-08-24T07:10:36.818Z,61.96
2022-08-24T07:13:04.015Z,61.96
2022-08-24T07:15:30.780Z,62.04
2022-08-24T07:18:10.017Z,62.02
2022-08-24T07:20:39.391Z,61.67
2022-08-24T07:23:17.891Z,61.97
2022-08-24T07:25:49.695Z,61.80
2022-08-24T07:28:18.542Z,61.34
2022-08-24T07:30:58.550Z,61.37
2022-08-24T07:33:26.172Z,61.63
2022-08-24T07:35:52.702Z,61.09
2022-08-24T07:38:22.917Z,61.23
2022-08-24T07:41:14.426Z,61.11
2022-08-24T07:43:36.168Z,60.71
2022-08-24T07:46:08.159Z,60.93
2022-08-24T07:48:36.034Z,60.74
2022-08-24T07:51:16.142Z,60.49
2022-08-24T07:53:53.466Z,59.98
2022-08-24T07:56:28.458Z,60.19
2022-08-24T07:58:56.125Z,60.01
2022-08-24T08:01:23.193Z,59.11
2022-08-24T08:03:51.779Z,59.73
2022-08-24T08:06:19.159Z,60.38
2022-08-24T08:08:48.019Z,59.84
2022-08-24T08:11:14.641Z,59.87
2022-08-24T08:16:10.439Z,59.41
2022-08-24T08:18:37.535Z,59.15
2022-08-24T08:21:31.626Z,59.26
2022-08-24T08:24:15.576Z,59.00
2022-08-24T08:26:45.552Z,58.54
2022-08-24T08:29:32.771Z,58.36
2022-08-24T08:32:00.683Z,58.54
2022-08-24T08:34:27.705Z,58.35
2022-08-24T08:36:55.904Z,57.90
2022-08-24T08:39:25.754Z,58.50
2022-08-24T08:42:30.354Z,57.87
2022-08-24T08:45:03.215Z,56.82
2022-08-24T08:47:51.004Z,56.46
2022-08-24T08:50:42.441Z,55.75
2022-08-24T08:53:14.806Z,55.53
2022-08-24T08:55:53.256Z,55.90
2022-08-24T08:58:53.717Z,54.72
2022-08-24T09:01:47.117Z,53.83
2022-08-24T09:04:45.194Z,54.40
2022-08-24T09:07:26.272Z,54.82
2022-08-24T09:10:25.926Z,54.92
2022-08-24T09:13:20.807Z,54.84
2022-08-24T09:16:13.174Z,53.74
2022-08-24T09:19:02.781Z,52.44
2022-08-24T09:21:49.775Z,51.78
2022-08-24T09:24:47.114Z,51.85
2022-08-24T09:27:32.808Z,50.34
2022-08-24T09:30:18.546Z,50.24
2022-08-24T09:33:01.802Z,50.64
2022-08-24T09:35:55.361Z,50.02
2022-08-24T09:38:52.439Z,50.54
2022-08-24T09:41:40.284Z,50.13
2022-08-24T09:44:12.680Z,50.36
2022-08-24T09:46:57.893Z,49.55
2022-08-24T09:49:37.883Z,47.37
2022-08-24T09:52:28.599Z,46.86
2022-08-24T09:55:32.399Z,47.03
2022-08-24T09:58:09.982Z,47.51
2022-08-24T10:00:54.509Z,48.00
2022-08-24T10:04:02.803Z,47.50
2022-08-24T10:06:39.000Z,46.31
2022-08-24T10:09:58.816Z,45.92
2022-08-24T10:13:00.156Z,47.24
2022-08-24T10:15:44.315Z,45.91
2022-08-24T10:18:38.362Z,45.77
2022-08-24T10:21:23.199Z,45.73
2022-08-24T10:24:20.846Z,43.72
2022-08-24T10:26:56.122Z,43.33
2022-08-24T10:29:31.731Z,43.01
2022-08-24T10:32:05.838Z,42.26
2022-08-24T10:34:54.210Z,39.98
2022-08-24T10:37:25.813Z,37.23
2022-08-24T10:40:20.479Z,34.19
2022-08-24T10:43:16.564Z,30.89
2022-08-24T10:46:24.868Z,29.60
2022-08-24T10:49:09.851Z,26.87
2022-08-24T10:51:56.130Z,25.69
2022-08-24T10:54:23.818Z,22.40
2022-08-24T10:56:58.491Z,21.88
2022-08-24T10:59:48.343Z,21.50
2022-08-24T11:02:39.305Z,19.90
2022-08-24T11:05:08.184Z,18.65
2022-08-24T11:07:36.105Z,17.04
2022-08-24T11:10:06.641Z,17.64
2022-08-24T11:12:37.454Z,16.64
2022-08-24T11:15:19.146Z,16.35
2022-08-24T11:17:57.624Z,15.97
2022-08-24T11:20:32.774Z,14.82
2022-08-24T11:23:15.830Z,15.04
2022-08-24T11:25:57.627Z,14.60
2022-08-24T11:28:33.527Z,13.99
2022-08-24T11:31:00.807Z,13.55
2022-08-24T11:33:31.256Z,14.03
2022-08-24T11:36:00.268Z,13.69
2022-08-24T11:38:35.145Z,13.75
2022-08-24T11:41:12.805Z,13.09
2022-08-24T11:44:04.809Z,14.13
2022-08-24T11:46:51.279Z,13.30
2022-08-24T11:49:42.288Z,13.04
2022-08-24T11:52:27.209Z,12.98
2022-08-24T11:55:08.159Z,12.85
2022-08-24T11:57:56.334Z,12.43
2022-08-24T12:00:30.118Z,11.19
2022-08-24T12:03:27.994Z,11.83
2022-08-24T12:06:18.320Z,11.19
2022-08-24T12:08:52.903Z,11.45
2022-08-24T12:11:37.880Z,11.33
2022-08-24T12:14:30.426Z,11.12
2022-08-24T12:17:18.866Z,10.23
2022-08-24T12:19:52.871Z,11.76
2022-08-24T12:22:21.994Z,10.54
2022-08-24T12:24:52.790Z,10.40
2022-08-24T12:27:26.259Z,10.17
2022-08-24T12:30:04.608Z,10.10
2022-08-24T12:32:39.221Z,10.47
2022-08-24T12:35:14.199Z,10.05
2022-08-24T12:37:59.171Z,10.46
2022-08-24T12:40:47.970Z,10.26
2022-08-24T12:43:27.746Z,10.30
2022-08-24T12:46:01.241Z,10.33
2022-08-24T12:48:35.324Z,10.70
2022-08-24T12:51:44.887Z,10.24
2022-08-24T12:54:27.524Z,10.46
2022-08-24T12:57:31.073Z,9.67
2022-08-24T13:00:06.343Z,9.32
2022-08-24T13:02:44.059Z,9.82
2022-08-24T13:05:18.781Z,9.64
2022-08-24T13:07:48.279Z,10.20
2022-08-24T13:10:45.142Z,9.38
2022-08-24T13:13:16.434Z,9.79
2022-08-24T13:15:44.622Z,9.40
2022-08-24T13:18:13.940Z,10.12
2022-08-24T13:20:43.170Z,9.82
2022-08-24T13:23:13.138Z,9.57
2022-08-24T13:25:51.838Z,10.04
2022-08-24T13:28:21.178Z,10.57
2022-08-24T13:30:53.548Z,10.88
2022-08-24T13:33:30.261Z,11.94
2022-08-24T13:36:00.902Z,13.11
2022-08-24T13:38:52.300Z,13.99
2022-08-24T13:41:31.204Z,15.79
2022-08-24T13:44:38.814Z,16.60
2022-08-24T13:47:16.715Z,17.63
2022-08-24T13:50:05.715Z,18.13
2022-08-24T13:53:11.565Z,19.46
2022-08-24T13:56:06.611Z,20.16
2022-08-24T13:58:43.290Z,20.29
2022-08-24T14:01:19.080Z,20.36
2022-08-24T14:04:04.578Z,20.67
2022-08-24T14:06:37.949Z,21.40
2022-08-24T14:09:55.006Z,21.44
2022-08-24T14:12:41.815Z,22.61
2022-08-24T14:15:30.102Z,22.52
2022-08-24T14:18:22.783Z,23.75
2022-08-24T14:21:03.117Z,23.56
2022-08-24T14:23:50.214Z,23.76
2022-08-24T14:26:35.094Z,24.72
2022-08-24T14:29:17.671Z,24.29
2022-08-24T14:31:53.263Z,25.33
2022-08-24T14:34:50.485Z,24.29
2022-08-24T14:37:24.166Z,25.58
2022-08-24T14:40:23.282Z,25.53
2022-08-24T14:43:00.368Z,25.25
2022-08-24T14:45:39.593Z,26.06
2022-08-24T14:48:18.715Z,25.75
2022-08-24T14:51:04.448Z,26.31
2022-08-24T14:53:37.508Z,26.42
2022-08-24T14:56:28.961Z,26.45
2022-08-24T14:59:17.734Z,25.80
2022-08-24T15:01:50.410Z,25.64
2022-08-24T15:04:38.543Z,26.18
2022-08-24T15:07:23.137Z,26.31
2022-08-24T15:09:50.606Z,26.73
2022-08-24T15:12:43.023Z,26.42
2022-08-24T15:15:33.938Z,26.23
2022-08-24T15:18:15.587Z,26.32
2022-08-24T15:21:08.919Z,25.94
2022-08-24T15:24:15.440Z,25.94
2022-08-24T15:27:03.286Z,25.86
2022-08-24T15:29:34.887Z,26.30
2022-08-24T15:32:08.005Z,26.33
2022-08-24T15:34:45.787Z,26.70
2022-08-24T15:37:16.012Z,26.40
2022-08-24T15:39:43.246Z,27.15
2022-08-24T15:42:13.761Z,27.51
2022-08-24T15:44:46.932Z,27.55
2022-08-24T15:47:35.935Z,28.33
2022-08-24T15:50:46.680Z,27.67
2022-08-24T15:53:32.389Z,28.78
2022-08-24T15:56:22.793Z,28.09
2022-08-24T15:58:50.171Z,28.56
2022-08-24T16:01:35.378Z,28.68
2022-08-24T16:04:46.597Z,29.23
2022-08-24T16:07:31.418Z,29.09
2022-08-24T16:10:11.325Z,29.19
2022-08-24T16:12:38.870Z,29.33
2022-08-24T16:15:19.195Z,29.53
2022-08-24T16:17:55.098Z,29.34
2022-08-24T16:20:24.902Z,30.08
2022-08-24T16:22:58.984Z,30.36
2022-08-24T16:25:32.948Z,30.55
2022-08-24T16:28:07.985Z,30.72
2022-08-24T16:30:38.966Z,30.76
2022-08-24T16:33:06.463Z,30.70
2022-08-24T16:35:33.091Z,30.76
2022-08-24T16:38:00.222Z,30.82
2022-08-24T16:40:27.972Z,31.19
2022-08-24T16:42:56.308Z,31.67
2022-08-24T16:45:23.062Z,31.74
2022-08-24T16:47:49.880Z,31.36
2022-08-24T16:50:19.287Z,31.60
2022-08-24T16:52:45.772Z,31.76
2022-08-24T16:55:14.684Z,32.10
2022-08-24T16:57:41.904Z,31.57
2022-08-24T17:00:15.425Z,31.63
2022-08-24T17:02:43.168Z,32.19
2022-08-24T17:05:10.791Z,31.93
2022-08-24T17:07:37.508Z,31.58
2022-08-24T17:10:09.576Z,32.08
2022-08-24T17:12:37.110Z,32.31
2022-08-24T17:15:06.305Z,32.02
2022-08-24T17:17:33.397Z,32.00
2022-08-24T17:20:00.512Z,32.20
2022-08-24T17:22:27.607Z,32.09
2022-08-24T17:24:54.390Z,32.27
2022-08-24T17:27:26.202Z,32.34
2022-08-24T17:29:53.000Z,32.12
2022-08-24T17:32:19.452Z,32.02
2022-08-24T17:34:45.941Z,32.63
2022-08-24T17:37:12.532Z,32.56
2022-08-24T17:39:38.992Z,32.71
2022-08-24T17:42:21.009Z,32.82
2022-08-24T17:44:52.643Z,33.06
2022-08-24T17:47:19.600Z,33.27
2022-08-24T17:49:46.832Z,32.87
2022-08-24T17:52:14.512Z,33.42
2022-08-24T17:54:41.978Z,33.23
2022-08-24T17:57:12.708Z,33.54
2022-08-24T17:59:39.137Z,33.79
2022-08-24T18:02:09.520Z,33.90
2022-08-24T18:04:37.654Z,33.70
2022-08-24T18:07:11.749Z,33.96
2022-08-24T18:09:50.825Z,34.20
2022-08-24T18:12:20.089Z,34.32
2022-08-24T18:14:46.769Z,34.34
2022-08-24T18:17:20.091Z,35.00
2022-08-24T18:19:50.949Z,35.02
2022-08-24T18:22:17.389Z,35.02
2022-08-24T18:24:44.710Z,35.49
2022-08-24T18:27:19.265Z,35.46
2022-08-24T18:29:46.863Z,35.87
2022-08-24T18:32:21.458Z,36.23
2022-08-24T18:34:47.918Z,36.51
2022-08-24T18:37:14.956Z,36.11
2022-08-24T18:39:41.380Z,36.38
2022-08-24T18:42:09.109Z,36.89
2022-08-24T18:44:37.561Z,37.64
2022-08-24T18:47:04.260Z,38.58
2022-08-24T18:49:30.686Z,39.21
2022-08-24T18:51:58.453Z,39.75
2022-08-24T18:54:30.526Z,40.77
2022-08-24T18:56:57.116Z,41.24
2022-08-24T18:59:23.586Z,41.69
2022-08-24T19:02:10.112Z,42.35
2022-08-24T19:04:47.295Z,42.19
2022-08-24T19:07:14.714Z,43.07
2022-08-24T19:09:41.289Z,43.31
2022-08-24T19:12:08.540Z,43.65
2022-08-24T19:14:35.835Z,44.16
2022-08-24T19:17:02.731Z,44.23
2022-08-24T19:19:29.701Z,44.75
2022-08-24T19:21:56.329Z,44.69
2022-08-24T19:24:26.097Z,45.26
2022-08-24T19:26:53.112Z,45.63
2022-08-24T19:29:38.965Z,45.39
2022-08-24T19:32:10.067Z,45.99
2022-08-24T19:34:46.404Z,45.78
2022-08-24T19:37:12.917Z,46.30
2022-08-24T19:39:39.452Z,46.49
2022-08-24T19:42:06.018Z,46.47
2022-08-24T19:44:56.594Z,46.77
2022-08-24T19:47:23.927Z,47.01
2022-08-24T19:49:50.688Z,47.07
2022-08-24T19:52:17.220Z,47.29
2022-08-24T19:54:45.790Z,47.38
2022-08-24T19:57:36.631Z,47.26
2022-08-24T20:00:28.179Z,47.38
2022-08-24T20:02:57.008Z,47.96
2022-08-24T20:05:26.114Z,48.37
2022-08-24T20:07:52.592Z,48.23
2022-08-24T20:10:22.333Z,48.30
2022-08-24T20:12:48.860Z,48.41
2022-08-24T20:15:15.472Z,48.80
2022-08-24T20:17:42.077Z,48.74
2022-08-24T20:20:10.872Z,48.72
2022-08-24T20:22:38.061Z,48.75
2022-08-24T20:25:05.988Z,49.15
2022-08-24T20:27:32.413Z,49.47
2022-08-24T20:29:59.678Z,49.05
2022-08-24T20:32:27.758Z,49.46
2022-08-24T20:34:54.309Z,49.37
2022-08-24T20:37:29.962Z,49.56
2022-08-24T20:39:57.165Z,49.91
2022-08-24T20:42:26.100Z,50.42
2022-08-24T20:44:53.958Z,50.31
2022-08-24T20:47:21.604Z,50.48
2022-08-24T20:49:48.984Z,50.73
2022-08-24T20:52:15.443Z,50.59
2022-08-24T20:54:41.976Z,50.72
2022-08-24T20:57:12.139Z,50.88
2022-08-24T20:59:38.615Z,51.12
2022-08-24T21:02:05.204Z,51.23
2022-08-24T21:04:31.816Z,51.18
2022-08-24T21:06:58.211Z,51.79
2022-08-24T21:09:25.036Z,51.58
2022-08-24T21:11:51.796Z,51.80
2022-08-24T21:14:19.889Z,51.71
2022-08-24T21:16:46.874Z,51.74
2022-08-24T21:19:17.623Z,52.00
2022-08-24T21:21:46.992Z,52.19
2022-08-24T21:24:14.464Z,52.01
2022-08-24T21:26:41.145Z,52.65
2022-08-24T21:29:09.338Z,52.37
2022-08-24T21:31:37.017Z,52.70
2022-08-24T21:34:22.144Z,52.75
2022-08-24T21:36:49.700Z,53.08
2022-08-24T21:39:19.107Z,52.97
2022-08-24T21:41:46.327Z,53.05
2022-08-24T21:44:12.965Z,53.13
2022-08-24T21:46:40.251Z,52.93
2022-08-24T21:49:06.963Z,52.96
2022-08-24T21:51:38.461Z,53.07
2022-08-24T21:54:04.984Z,52.98
2022-08-24T21:56:32.447Z,53.45
2022-08-24T21:58:59.790Z,53.49
2022-08-24T22:01:26.951Z,53.07
2022-08-24T22:03:53.481Z,53.10
2022-08-24T22:06:19.890Z,53.61
2022-08-24T22:08:46.504Z,53.31
2022-08-24T22:11:15.686Z,53.38
2022-08-24T22:13:42.598Z,53.19
2022-08-24T22:16:10.089Z,53.69
2022-08-24T22:18:36.795Z,53.66
2022-08-24T22:21:08.919Z,53.54
2022-08-24T22:23:35.904Z,53.83
2022-08-24T22:26:02.748Z,54.02
2022-08-24T22:28:30.120Z,53.67
2022-08-24T22:30:56.756Z,54.37
2022-08-24T22:33:23.718Z,54.30
2022-08-24T22:35:51.674Z,53.81
2022-08-24T22:38:19.831Z,53.82
2022-08-24T22:40:46.699Z,54.21
2022-08-24T22:43:13.221Z,54.13
2022-08-24T22:45:39.660Z,54.36
2022-08-24T22:48:06.124Z,54.62
2022-08-24T22:50:32.619Z,54.34
2022-08-24T22:52:59.328Z,54.83
2022-08-24T22:55:25.936Z,54.54
2022-08-24T22:57:52.427Z,54.59
2022-08-24T23:00:19.348Z,55.09
2022-08-24T23:02:45.835Z,55.13
2022-08-24T23:05:12.417Z,55.39
2022-08-24T23:07:38.897Z,55.28
2022-08-24T23:10:06.018Z,55.63
2022-08-24T23:12:32.939Z,56.10
2022-08-24T23:14:59.504Z,56.39
2022-08-24T23:17:30.117Z,56.06
2022-08-24T23:20:06.632Z,56.22
2022-08-24T23:22:39.414Z,56.33
2022-08-24T23:25:08.799Z,56.97
2022-08-24T23:27:38.432Z,56.55
2022-08-24T23:30:14.604Z,56.72
2022-08-24T23:32:41.877Z,57.18
2022-08-24T23:35:08.892Z,57.05
2022-08-24T23:37:35.317Z,57.19
2022-08-24T23:40:02.822Z,57.21
2022-08-24T23:42:29.271Z,57.63
2022-08-24T23:44:55.898Z,57.76
2022-08-24T23:47:23.476Z,57.58
2022-08-24T23:49:50.902Z,58.02
2022-08-24T23:52:26.515Z,57.95
2022-08-24T23:54:56.095Z,58.08
2022-08-24T23:57:36.379Z,57.91
